Time;durP1;ratioP1;P1;durP2;ratioP2;P2;SDS_P1;SDS_P2;PMS_P1;PMS_P2;Temp;Humidity;BMP_temperature;BMP_pressure;BME280_temperature;BME280_humidity;BME280_pressure;Samples;Min_cycle;Max_cycle;Signal;HPM_P1;HPM_P2
2024/02/09 00:01:12;;;;;;;21.33;4.73;;;;;;;15.25;56.43;96663.91;7023833;28;20312;-81
2024/02/09 00:04:33;;;;;;;15.30;5.33;;;;;;;15.00;56.76;96661.44;7024920;28;20532;-81
2024/02/09 00:07:57;;;;;;;16.63;5.07;;;;;;;15.07;56.78;96628.50;7007353;28;20803;-81
2024/02/09 00:11:21;;;;;;;16.07;4.87;;;;;;;15.04;56.90;96639.97;7002746;28;20218;-82
2024/02/09 00:14:44;;;;;;;14.83;6.10;;;;;;;15.07;57.09;96658.38;7002874;28;20242;-81
2024/02/09 00:18:06;;;;;;;12.00;4.77;;;;;;;15.00;57.50;96663.31;6974708;28;20257;-82
2024/02/09 00:21:29;;;;;;;12.87;4.60;;;;;;;15.02;57.49;96636.69;6975208;28;20265;-81
2024/02/09 00:24:50;;;;;;;17.07;4.90;;;;;;;15.31;56.80;96648.34;6985243;28;20207;-81
2024/02/09 00:28:12;;;;;;;12.60;4.80;;;;;;;15.45;56.08;96617.56;7003336;28;20293;-82
2024/02/09 00:31:35;;;;;;;9.77;4.20;;;;;;;15.43;56.33;96611.63;7006239;28;20219;-82
2024/02/09 00:34:56;;;;;;;10.43;4.10;;;;;;;15.25;56.81;96608.78;7008758;28;20606;-82
2024/02/09 00:38:20;;;;;;;11.33;4.97;;;;;;;15.16;57.33;96599.66;7009588;28;20255;-81
2024/02/09 00:41:41;;;;;;;12.40;4.00;;;;;;;15.29;57.16;96607.13;7010741;28;20226;-82
2024/02/09 00:45:03;;;;;;;11.30;4.47;;;;;;;15.20;57.28;96604.22;7011795;28;20292;-82
2024/02/09 00:48:26;;;;;;;10.97;4.37;;;;;;;14.94;58.55;96602.88;7011034;28;20256;-82
2024/02/09 00:51:49;;;;;;;12.50;4.63;;;;;;;15.26;57.44;96604.97;7006963;28;20357;-81
2024/02/09 00:55:12;;;;;;;12.07;5.00;;;;;;;15.39;56.95;96590.75;7001515;28;20202;-81
2024/02/09 00:58:33;;;;;;;11.27;4.80;;;;;;;15.10;57.92;96590.75;6973966;28;20238;-81
2024/02/09 01:01:55;;;;;;;11.80;5.97;;;;;;;15.17;57.81;96591.22;6974510;28;20230;-80
2024/02/09 01:05:18;;;;;;;10.23;4.67;;;;;;;15.25;57.49;96590.59;6984152;28;20668;-81
2024/02/09 01:08:40;;;;;;;9.07;4.17;;;;;;;15.34;57.13;96601.69;7001951;28;20230;-81
2024/02/09 02:46:41;;;;;;;7.10;4.00;;;;;;;14.95;60.79;96552.94;6998340;28;20210;-82
2024/02/09 03:04:38;;;;;;;6.27;3.13;;;;;;;14.74;61.88;96539.88;6997866;28;20191;-82
2024/02/09 03:08:01;;;;;;;7.90;3.37;;;;;;;14.79;61.85;96518.09;6998141;28;20343;-82
2024/02/09 03:11:24;;;;;;;8.43;3.57;;;;;;;14.66;62.23;96524.19;6998856;28;20222;-82
2024/02/09 03:14:45;;;;;;;8.77;3.27;;;;;;;14.83;62.17;96532.72;6998521;28;20252;-81
2024/02/09 03:18:07;;;;;;;6.80;3.70;;;;;;;14.82;62.06;96521.03;6997579;28;20316;-82
2024/02/09 03:21:35;;;;;;;5.87;3.33;;;;;;;15.01;61.32;96499.41;6998009;28;20360;-82
2024/02/09 03:24:57;;;;;;;7.77;3.20;;;;;;;15.00;61.35;96505.94;6998845;28;20554;-82
2024/02/09 03:28:20;;;;;;;6.30;3.00;;;;;;;14.95;61.73;96511.41;6997797;28;20210;-82
2024/02/09 03:31:42;;;;;;;7.00;3.37;;;;;;;14.93;61.70;96513.63;6997828;28;20306;-82
2024/02/09 03:35:05;;;;;;;7.50;3.30;;;;;;;15.06;61.95;96512.94;6998340;28;20235;-82
2024/02/09 03:38:27;;;;;;;8.13;3.43;;;;;;;15.09;61.20;96510.44;6997878;28;20671;-82
2024/02/09 03:41:48;;;;;;;8.00;4.37;;;;;;;15.12;61.34;96506.34;6997151;28;20221;-82
2024/02/09 03:45:11;;;;;;;7.17;2.93;;;;;;;15.19;61.17;96509.50;6998798;28;20270;-82
2024/02/09 03:48:33;;;;;;;6.60;3.37;;;;;;;14.94;61.64;96493.53;6998339;28;20201;-82
2024/02/09 03:51:54;;;;;;;8.37;3.00;;;;;;;15.03;61.68;96508.06;6983464;28;20699;-82
2024/02/09 03:55:17;;;;;;;7.73;3.37;;;;;;;14.89;62.44;96499.81;6980108;28;20206;-82
2024/02/09 03:58:41;;;;;;;6.43;3.40;;;;;;;14.88;62.31;96498.22;6997535;28;20242;-82
2024/02/09 04:02:07;;;;;;;7.47;3.10;;;;;;;15.04;62.12;96488.00;6997604;28;20283;-82
2024/02/09 04:05:28;;;;;;;6.70;2.90;;;;;;;15.13;61.89;96497.09;6998820;28;20196;-81
2024/02/09 04:08:49;;;;;;;5.83;2.80;;;;;;;15.09;61.85;96491.44;6998939;28;20755;-82
2024/02/09 04:12:12;;;;;;;4.30;3.17;;;;;;;15.25;61.20;96475.78;6999593;28;20317;-81
2024/02/09 04:15:34;;;;;;;5.87;3.90;;;;;;;15.27;61.44;96477.09;6999159;28;20261;-82
2024/02/09 04:18:56;;;;;;;7.87;3.43;;;;;;;15.15;61.28;96465.84;6999027;28;20229;-81
2024/02/09 04:22:18;;;;;;;5.63;3.27;;;;;;;15.29;61.16;96465.97;6999400;28;20312;-82
2024/02/09 04:25:40;;;;;;;6.97;3.10;;;;;;;15.21;60.91;96467.41;6999410;28;20352;-81
2024/02/09 04:29:04;;;;;;;3.63;2.70;;;;;;;15.44;60.83;96477.47;7003064;28;20198;-82
2024/02/09 04:32:25;;;;;;;6.83;3.63;;;;;;;15.50;60.58;96473.56;7003140;28;20230;-82
2024/02/09 04:35:48;;;;;;;3.70;2.33;;;;;;;15.46;60.46;96458.97;7003983;28;20312;-82
2024/02/09 04:39:11;;;;;;;5.37;2.70;;;;;;;15.50;60.59;96476.28;7004011;28;20293;-82
2024/02/09 04:42:32;;;;;;;4.70;2.90;;;;;;;15.51;60.50;96471.69;7003261;28;20234;-82
2024/02/09 04:45:54;;;;;;;5.93;3.23;;;;;;;15.52;60.37;96457.78;7003695;28;20266;-82
2024/02/09 04:49:15;;;;;;;2.73;2.53;;;;;;;15.62;60.10;96462.28;7003195;28;20252;-82
2024/02/09 04:52:38;;;;;;;3.17;2.33;;;;;;;15.59;60.06;96460.97;7004027;28;20324;-82
2024/02/09 04:56:00;;;;;;;5.90;2.60;;;;;;;15.58;60.03;96481.06;7006330;28;20228;-82
2024/02/09 04:59:21;;;;;;;4.37;2.77;;;;;;;15.61;59.70;96480.50;7005970;28;20592;-82
2024/02/09 05:02:43;;;;;;;2.87;2.20;;;;;;;15.62;59.77;96475.88;7004895;28;20226;-82
2024/02/09 05:06:05;;;;;;;3.07;2.17;;;;;;;15.44;60.29;96452.19;7005390;28;20198;-82
2024/02/09 05:09:29;;;;;;;3.60;2.30;;;;;;;15.23;60.44;96469.84;7007770;28;20300;-82
2024/02/09 05:12:52;;;;;;;5.00;2.60;;;;;;;15.61;59.61;96461.47;6999665;28;20199;-81
2024/02/09 05:16:13;;;;;;;3.67;2.23;;;;;;;15.32;59.78;96457.22;7005074;28;20206;-83
2024/02/09 05:19:36;;;;;;;4.50;2.23;;;;;;;15.52;59.17;96451.56;7002545;28;20273;-80
2024/02/09 05:22:57;;;;;;;2.23;2.10;;;;;;;15.61;58.34;96442.47;6997440;28;20205;-81
2024/02/09 05:26:20;;;;;;;2.50;2.10;;;;;;;15.51;58.76;96445.31;6998440;28;20294;-80
2024/02/09 05:29:42;;;;;;;5.20;2.50;;;;;;;15.61;58.06;96438.94;6993220;28;20324;-81
2024/02/09 05:33:04;;;;;;;2.17;1.97;;;;;;;15.74;58.17;96438.22;7001697;28;20332;-81
2024/02/09 05:36:26;;;;;;;2.93;1.90;;;;;;;15.75;57.45;96432.47;7001163;28;20289;-81
2024/02/09 05:39:48;;;;;;;3.73;2.40;;;;;;;15.70;57.81;96440.69;6992151;28;20310;-80
2024/02/09 05:43:11;;;;;;;2.57;2.27;;;;;;;15.76;57.74;96431.34;6992030;28;20297;-81
2024/02/09 05:46:32;;;;;;;4.13;2.70;;;;;;;15.83;57.40;96439.97;6974697;28;20360;-81
2024/02/09 05:49:54;;;;;;;3.67;2.47;;;;;;;15.77;57.71;96440.31;6987193;28;20287;-81
2024/02/09 05:53:17;;;;;;;2.63;2.10;;;;;;;15.32;58.50;96421.94;6984995;28;20207;-81
2024/02/09 05:56:39;;;;;;;3.73;2.13;;;;;;;15.46;58.60;96436.44;7006888;28;20223;-81
2024/02/09 06:00:03;;;;;;;2.27;2.07;;;;;;;15.45;58.25;96426.69;7012298;28;20321;-80
2024/02/09 06:03:27;;;;;;;2.13;1.90;;;;;;;15.20;58.39;96418.84;7012078;28;20222;-81
2024/02/09 06:06:48;;;;;;;3.33;2.20;;;;;;;15.43;58.39;96426.97;7009772;28;20586;-81
2024/02/09 06:10:10;;;;;;;3.20;2.43;;;;;;;15.52;57.77;96418.97;7001966;28;20280;-80
2024/02/09 06:13:32;;;;;;;2.90;1.83;;;;;;;15.88;56.44;96420.06;7001816;28;20336;-81
2024/02/09 06:16:55;;;;;;;2.30;2.03;;;;;;;15.76;55.99;96430.56;7001849;28;20234;-80
2024/02/09 06:20:22;;;;;;;2.10;1.90;;;;;;;15.68;55.66;96413.00;7001071;28;20285;-81
2024/02/09 06:23:45;;;;;;;3.37;1.90;;;;;;;16.03;55.04;96417.88;7001409;28;20229;-81
2024/02/09 06:27:07;;;;;;;2.10;1.90;;;;;;;15.98;54.90;96428.03;7000545;28;20722;-81
2024/02/09 06:30:28;;;;;;;1.70;1.60;;;;;;;15.46;55.53;96412.78;6999351;28;20231;-81
2024/02/09 06:33:52;;;;;;;1.97;1.87;;;;;;;16.04;54.78;96438.53;6995343;28;20336;-80
2024/02/09 06:37:18;;;;;;;2.07;1.70;;;;;;;16.04;53.96;96440.44;6997566;28;20203;-80
2024/02/09 06:40:39;;;;;;;2.77;1.77;;;;;;;16.18;53.64;96439.41;6998320;28;20239;-81
2024/02/09 06:44:01;;;;;;;1.80;1.70;;;;;;;16.06;53.53;96430.91;6998109;28;20257;-80
2024/02/09 06:47:23;;;;;;;2.13;1.73;;;;;;;16.06;53.78;96427.34;6989609;28;20753;-80
2024/02/09 06:50:46;;;;;;;1.63;1.50;;;;;;;16.19;53.29;96430.13;6992018;28;20223;-81
2024/02/09 06:54:08;;;;;;;2.13;2.03;;;;;;;16.30;52.83;96430.75;6995914;28;20244;-81
2024/02/09 06:57:30;;;;;;;2.70;1.70;;;;;;;16.21;52.93;96433.34;6997485;28;20286;-80
2024/02/09 07:00:52;;;;;;;2.83;1.73;;;;;;;16.29;52.75;96435.38;6996632;28;20353;-81
2024/02/09 07:04:17;;;;;;;2.47;1.60;;;;;;;16.40;52.13;96439.56;6997144;28;20264;-80
2024/02/09 07:07:43;;;;;;;1.23;1.10;;;;;;;16.35;51.73;96439.63;6997140;28;20707;-81
2024/02/09 07:11:05;;;;;;;2.03;1.70;;;;;;;16.33;51.93;96435.59;6996873;28;20219;-80
2024/02/09 07:14:26;;;;;;;1.63;1.50;;;;;;;16.42;51.39;96439.28;6997503;28;20227;-81
2024/02/09 07:17:50;;;;;;;1.60;1.50;;;;;;;16.51;51.35;96434.78;6996287;28;20238;-80
2024/02/09 07:21:14;;;;;;;1.83;1.73;;;;;;;16.26;51.90;96406.06;6997604;28;20238;-80
2024/02/09 07:24:37;;;;;;;2.10;1.90;;;;;;;16.48;51.87;96427.19;6997614;28;20199;-80
2024/02/09 07:27:59;;;;;;;1.60;1.50;;;;;;;16.48;51.21;96429.91;6996897;28;20214;-80
2024/02/09 07:31:21;;;;;;;2.23;1.70;;;;;;;16.35;51.27;96436.91;6997337;28;20558;-80
2024/02/09 07:34:43;;;;;;;4.50;1.80;;;;;;;16.66;51.00;96442.63;6998301;28;20203;-81
2024/02/09 07:38:04;;;;;;;1.53;1.43;;;;;;;16.45;51.56;96433.25;6997143;28;20739;-81
2024/02/09 07:41:30;;;;;;;3.83;1.90;;;;;;;16.97;50.05;96433.59;6996933;28;20238;-80
2024/02/09 07:44:52;;;;;;;2.23;2.03;;;;;;;17.11;50.25;96434.38;6997020;28;20340;-80
2024/02/09 07:48:13;;;;;;;2.33;1.87;;;;;;;16.37;51.75;96431.97;6997004;28;20357;-81
2024/02/09 07:51:35;;;;;;;3.23;1.70;;;;;;;16.97;50.36;96438.22;6997908;28;20364;-81
2024/02/09 07:54:56;;;;;;;1.97;1.80;;;;;;;16.74;50.51;96428.34;6997002;28;20267;-80
2024/02/09 07:58:19;;;;;;;1.80;1.70;;;;;;;17.07;49.22;96424.41;6996943;28;20196;-80
2024/02/09 08:01:41;;;;;;;1.90;1.80;;;;;;;17.27;48.99;96424.00;6997536;28;20288;-80
2024/02/09 08:05:07;;;;;;;2.57;2.13;;;;;;;17.36;48.22;96409.34;6991283;28;20649;-80
2024/02/09 08:08:29;;;;;;;1.83;1.73;;;;;;;17.38;48.04;96411.78;6996372;28;20194;-81
2024/02/09 08:11:50;;;;;;;2.37;2.00;;;;;;;17.11;49.36;96409.09;6998412;28;20301;-81
2024/02/09 08:15:13;;;;;;;2.30;2.07;;;;;;;17.40;48.89;96415.03;6987760;28;20237;-81
2024/02/09 08:18:35;;;;;;;3.53;2.87;;;;;;;17.47;48.88;96424.41;7014318;23;20390;-82
2024/02/09 08:21:56;;;;;;;2.90;2.70;;;;;;;17.51;48.79;96417.22;6999424;28;20325;-80
2024/02/09 08:25:18;;;;;;;3.70;3.00;;;;;;;17.52;48.71;96415.31;7000249;28;20208;-80
2024/02/09 08:28:43;;;;;;;8.63;3.27;;;;;;;16.87;50.71;96422.88;6974025;28;20300;-80
2024/02/09 08:32:07;;;;;;;3.00;2.67;;;;;;;17.06;50.88;96425.53;6990550;28;20229;-80
2024/02/09 08:35:29;;;;;;;3.03;2.43;;;;;;;16.88;50.98;96435.38;7004882;28;20204;-81
2024/02/09 08:38:50;;;;;;;4.73;4.23;;;;;;;17.23;50.40;96429.22;7004497;28;20720;-81
2024/02/09 08:42:12;;;;;;;7.03;5.93;;;;;;;17.02;52.22;96436.22;7005580;28;20236;-81
2024/02/09 08:45:35;;;;;;;7.00;5.73;;;;;;;17.26;51.79;96441.44;7005524;28;20246;-82
2024/02/09 08:48:58;;;;;;;10.63;7.50;;;;;;;16.89;53.31;96449.81;6988561;28;20211;-80
2024/02/09 08:52:20;;;;;;;7.40;5.57;;;;;;;17.24;52.50;96432.75;6978606;28;20214;-81
2024/02/09 08:55:41;;;;;;;10.37;6.23;;;;;;;17.47;52.02;96431.75;6978537;28;20328;-81
2024/02/09 08:59:06;;;;;;;7.63;5.73;;;;;;;17.49;52.32;96441.22;6978554;28;20312;-81
2024/02/09 09:02:29;;;;;;;6.43;5.73;;;;;;;17.36;53.40;96438.50;6978929;28;20231;-81
2024/02/09 09:05:51;;;;;;;8.63;5.30;;;;;;;17.59;53.37;96440.19;6978753;28;20227;-82
2024/02/09 09:09:14;;;;;;;7.63;6.00;;;;;;;16.81;55.96;96434.19;6978086;28;20205;-81
2024/02/09 09:12:38;;;;;;;8.73;5.57;;;;;;;16.41;56.88;96438.47;6978734;28;20564;-82
2024/02/09 09:15:59;;;;;;;6.07;5.47;;;;;;;17.19;55.61;96428.25;6978822;28;20225;-84
2024/02/09 09:19:21;;;;;;;8.27;5.03;;;;;;;17.23;55.43;96428.44;7005123;28;20239;-81
2024/02/09 09:22:43;;;;;;;5.77;4.37;;;;;;;17.71;54.14;96443.19;7009491;28;20233;-82
2024/02/09 09:26:05;;;;;;;7.77;4.60;;;;;;;18.20;53.26;96430.28;7005648;28;20232;-82
2024/02/09 09:29:26;;;;;;;4.57;4.13;;;;;;;18.43;52.86;96431.09;7004889;28;20299;-81
2024/02/09 09:32:48;;;;;;;4.40;4.00;;;;;;;18.58;52.80;96438.91;7005827;28;20285;-81
2024/02/09 09:36:10;;;;;;;4.40;4.00;;;;;;;18.85;50.34;96416.84;7003055;28;20225;-82
2024/02/09 09:39:32;;;;;;;5.53;4.13;;;;;;;18.69;51.80;96435.56;7004073;28;20291;-81
2024/02/09 09:42:54;;;;;;;4.80;3.67;;;;;;;19.22;50.42;96425.38;7004595;28;20232;-81
2024/02/09 09:46:21;;;;;;;5.33;3.63;;;;;;;18.58;51.25;96389.78;7004456;28;20377;-81
2024/02/09 09:49:44;;;;;;;6.10;4.03;;;;;;;19.35;49.80;96420.91;7003880;28;20182;-81
2024/02/09 09:53:13;;;;;;;4.37;3.33;;;;;;;18.95;50.89;96417.41;7004083;28;20232;-81
2024/02/09 09:56:39;;;;;;;3.33;2.93;;;;;;;19.52;49.75;96404.56;7003719;28;20239;-83
2024/02/09 10:00:02;;;;;;;5.77;3.30;;;;;;;19.31;49.85;96412.56;7003560;28;20232;-81
2024/02/09 10:03:25;;;;;;;4.90;2.73;;;;;;;19.43;48.76;96414.66;7004285;28;20254;-81
2024/02/09 10:06:46;;;;;;;5.27;2.93;;;;;;;19.67;47.94;96415.00;7002240;28;20229;-81
2024/02/09 10:10:11;;;;;;;4.23;2.87;;;;;;;19.78;47.63;96378.84;7004144;28;20237;-82
2024/02/09 10:13:35;;;;;;;3.57;2.80;;;;;;;20.04;47.87;96406.19;7004729;28;20581;-81
2024/02/09 10:16:57;;;;;;;6.30;2.57;;;;;;;19.94;46.40;96401.03;7002625;28;20236;-82
2024/02/09 10:20:19;;;;;;;4.60;3.30;;;;;;;20.07;47.21;96389.97;7004005;28;20264;-81
2024/02/09 10:23:41;;;;;;;3.23;2.67;;;;;;;19.80;45.63;96390.25;7004104;28;20266;-81
2024/02/09 10:27:02;;;;;;;6.83;2.70;;;;;;;20.15;44.80;96394.59;7003067;28;20309;-82
2024/02/09 10:30:26;;;;;;;2.47;2.27;;;;;;;20.22;43.17;96394.13;7006032;28;20268;-81
2024/02/09 10:33:48;;;;;;;3.80;2.10;;;;;;;19.73;43.16;96400.88;7004064;28;20202;-81
2024/02/09 10:37:10;;;;;;;2.93;2.30;;;;;;;19.70;45.24;96404.22;7004167;28;20228;-82
2024/02/09 10:40:33;;;;;;;2.87;2.20;;;;;;;19.59;44.62;96361.16;7003620;28;20320;-81
2024/02/09 10:43:59;;;;;;;2.90;2.20;;;;;;;19.75;44.60;96395.09;7002718;28;20617;-81
2024/02/09 10:47:22;;;;;;;3.27;1.87;;;;;;;19.78;42.54;96380.75;7003379;28;20229;-81
2024/02/09 10:50:45;;;;;;;6.60;2.00;;;;;;;19.99;42.48;96365.31;7002694;28;20206;-80
2024/02/09 10:54:10;;;;;;;2.80;2.23;;;;;;;19.83;42.99;96377.88;6998381;28;20205;-82
2024/02/09 10:57:33;;;;;;;2.73;1.83;;;;;;;19.52;44.17;96367.09;7000714;28;20268;-80
2024/02/09 11:00:55;;;;;;;3.70;2.43;;;;;;;19.72;44.02;96371.13;6995094;28;20229;-80
2024/02/09 11:04:18;;;;;;;4.57;1.90;;;;;;;20.00;42.90;96362.28;7000432;28;20248;-83
2024/02/09 11:07:40;;;;;;;2.37;1.70;;;;;;;20.11;40.03;96351.81;6999716;28;20294;-83
2024/02/09 11:11:02;;;;;;;2.87;1.50;;;;;;;20.45;40.83;96347.06;6999352;28;20676;-82
2024/02/09 11:14:29;;;;;;;2.53;1.87;;;;;;;20.45;39.68;96343.53;7000207;28;20283;-83
2024/02/09 11:17:51;;;;;;;4.37;1.90;;;;;;;19.78;41.51;96342.47;7000133;28;20380;-83
2024/02/09 11:21:14;;;;;;;4.13;1.80;;;;;;;19.93;41.87;96339.25;7001607;28;20299;-80
2024/02/09 11:24:35;;;;;;;3.27;2.10;;;;;;;20.47;40.14;96346.72;6999611;28;20711;-79
2024/02/09 11:27:57;;;;;;;2.77;1.97;;;;;;;19.89;40.71;96330.09;6997298;28;20259;-81
2024/02/09 11:31:22;;;;;;;2.43;1.70;;;;;;;19.62;41.49;96327.69;6978171;28;20232;-82
2024/02/09 11:34:47;;;;;;;2.40;1.40;;;;;;;19.84;42.17;96336.53;6997662;28;20285;-82
2024/02/09 11:38:10;;;;;;;2.10;1.70;;;;;;;20.44;39.98;96329.03;6991065;28;20706;-82
2024/02/09 11:41:32;;;;;;;3.30;1.93;;;;;;;19.62;40.65;96314.84;6999444;28;20245;-82
2024/02/09 11:44:54;;;;;;;4.73;2.03;;;;;;;19.44;41.20;96313.22;6990663;28;20333;-83
2024/02/09 11:48:16;;;;;;;3.63;1.40;;;;;;;19.81;42.04;96320.75;6996560;28;20817;-83
2024/02/09 11:51:38;;;;;;;3.03;1.83;;;;;;;20.33;40.92;96305.88;6981924;28;20283;-82
2024/02/09 11:55:03;;;;;;;2.00;1.50;;;;;;;20.36;39.88;96313.44;7000356;28;20217;-82
2024/02/09 11:58:26;;;;;;;1.90;1.60;;;;;;;19.24;41.57;96318.53;6990188;28;20229;-82
2024/02/09 12:01:47;;;;;;;1.50;1.40;;;;;;;19.46;41.48;96318.38;6999140;28;20446;-83
2024/02/09 12:05:09;;;;;;;3.20;1.73;;;;;;;19.14;41.29;96300.50;7002729;28;20290;-82
2024/02/09 12:08:31;;;;;;;3.47;1.50;;;;;;;19.74;40.87;96298.59;7001785;28;20233;-82
2024/02/09 12:11:54;;;;;;;2.50;1.50;;;;;;;19.50;40.60;96303.75;6994909;28;20210;-82
2024/02/09 12:15:17;;;;;;;2.80;1.53;;;;;;;19.91;40.69;96295.00;6992795;28;20291;-81
2024/02/09 12:18:42;;;;;;;1.80;1.23;;;;;;;19.97;40.11;96300.00;6999877;28;20245;-81
2024/02/09 12:22:05;;;;;;;2.73;1.60;;;;;;;20.13;40.10;96311.25;6996120;28;20277;-81
2024/02/09 12:25:26;;;;;;;1.97;1.60;;;;;;;19.95;40.19;96298.72;6998334;28;20272;-81
2024/02/09 12:28:49;;;;;;;3.93;1.63;;;;;;;19.81;40.34;96293.41;6996194;28;20332;-81
2024/02/09 12:32:11;;;;;;;4.53;1.93;;;;;;;19.79;40.34;96287.50;6997243;28;20243;-81
2024/02/09 12:35:34;;;;;;;3.63;1.83;;;;;;;20.22;40.44;96282.72;6979229;28;20308;-81
2024/02/09 12:38:56;;;;;;;3.63;1.83;;;;;;;20.03;39.87;96279.53;6977380;28;20574;-83
2024/02/09 12:42:18;;;;;;;2.07;1.57;;;;;;;20.15;40.13;96287.09;6998315;28;20237;-81
2024/02/09 12:45:41;;;;;;;2.53;1.87;;;;;;;20.00;41.20;96291.16;6996947;28;20230;-82
2024/02/09 12:49:04;;;;;;;2.80;1.77;;;;;;;20.04;41.43;96291.31;6995185;28;20303;-83
2024/02/09 12:52:27;;;;;;;3.87;1.63;;;;;;;19.72;42.31;96289.91;6990208;28;20206;-82
2024/02/09 12:55:49;;;;;;;2.83;1.90;;;;;;;19.24;42.15;96184.66;6975733;28;20254;-83
2024/02/09 12:59:11;;;;;;;2.37;1.80;;;;;;;19.48;42.65;96277.88;6999048;28;20205;-82
2024/02/09 13:02:34;;;;;;;6.40;2.13;;;;;;;19.62;42.36;96282.03;6994896;28;20312;-82
2024/02/09 13:05:55;;;;;;;3.80;1.70;;;;;;;19.61;43.88;96283.16;6997686;28;20236;-83
2024/02/09 13:09:17;;;;;;;2.70;1.90;;;;;;;19.37;43.99;96282.03;6999316;28;20288;-85
2024/02/09 13:12:38;;;;;;;2.10;1.90;;;;;;;19.19;45.32;96283.94;7005521;28;20206;-83
2024/02/09 13:16:00;;;;;;;2.90;2.27;;;;;;;18.27;47.26;96217.13;7017635;28;20248;-85
2024/02/09 13:19:24;;;;;;;2.40;2.00;;;;;;;18.40;48.16;96285.19;7017962;28;20200;-83
2024/02/09 13:22:47;;;;;;;3.93;2.70;;;;;;;18.58;47.97;96280.63;7019066;28;20773;-82
2024/02/09 13:26:14;;;;;;;5.70;2.30;;;;;;;18.31;49.34;96286.25;7006461;28;20581;-83
2024/02/09 13:29:36;;;;;;;5.03;2.97;;;;;;;18.28;50.34;96278.72;7003874;28;20203;-83
2024/02/09 13:32:58;;;;;;;8.00;3.57;;;;;;;17.78;51.53;96261.78;7004465;28;20258;-82
2024/02/09 13:39:56;;;;;;;3.63;2.57;;;;;;;17.51;52.97;96250.25;6972657;28;20253;-80
2024/02/09 13:43:17;;;;;;;2.97;2.63;;;;;;;17.78;52.39;96264.50;6993681;28;20258;-80
2024/02/09 13:46:39;;;;;;;3.40;2.40;;;;;;;17.93;51.92;96266.03;6999845;28;20342;-80
2024/02/09 13:50:03;;;;;;;2.50;2.30;;;;;;;17.99;51.35;96251.94;7000492;28;20201;-81
2024/02/09 13:53:26;;;;;;;2.90;1.77;;;;;;;18.18;50.52;96249.00;6999788;28;20240;-81
2024/02/09 13:56:47;;;;;;;3.87;2.10;;;;;;;17.85;51.62;96251.25;7000162;28;20371;-80
2024/02/09 14:00:09;;;;;;;5.93;2.43;;;;;;;17.37;52.46;96223.03;6989902;28;20208;-81
2024/02/09 14:03:31;;;;;;;3.57;2.37;;;;;;;17.41;52.45;96210.44;6972776;28;20272;-81
2024/02/09 14:06:53;;;;;;;5.23;2.13;;;;;;;17.64;52.73;96247.41;6972434;28;20794;-81
2024/02/09 14:10:16;;;;;;;2.30;2.10;;;;;;;17.28;52.83;96235.78;6994657;28;20202;-81
2024/02/09 14:13:37;;;;;;;2.13;1.93;;;;;;;16.89;51.76;96134.13;6999307;28;20659;-81
2024/02/09 14:17:01;;;;;;;5.67;2.13;;;;;;;17.70;51.37;96226.31;7000662;28;20289;-82
2024/02/09 14:20:22;;;;;;;6.47;2.27;;;;;;;17.75;51.80;96240.59;7000222;28;20693;-81
2024/02/09 14:23:44;;;;;;;4.63;2.37;;;;;;;18.02;50.80;96234.16;6999961;28;20318;-80
2024/02/09 14:27:11;;;;;;;3.17;2.20;;;;;;;17.59;51.45;96230.41;6999052;28;20401;-80
2024/02/09 14:30:32;;;;;;;4.27;2.80;;;;;;;18.09;50.32;96220.88;7000405;28;20271;-81
2024/02/09 14:33:54;;;;;;;2.47;2.13;;;;;;;17.67;50.14;96196.94;6996749;28;20282;-80
2024/02/09 14:37:15;;;;;;;4.10;2.27;;;;;;;17.93;50.42;96220.47;6997516;28;20233;-81
2024/02/09 14:40:37;;;;;;;3.17;2.30;;;;;;;18.16;49.50;96221.25;6998232;28;20296;-81
2024/02/09 14:44:00;;;;;;;3.37;2.00;;;;;;;18.37;49.72;96200.47;6999169;28;20664;-81
2024/02/09 14:47:23;;;;;;;4.23;2.33;;;;;;;17.92;49.03;96180.72;6998454;28;20235;-80
2024/02/09 14:50:46;;;;;;;5.47;2.40;;;;;;;18.11;49.74;96200.34;7006534;28;20212;-81
2024/02/09 14:54:08;;;;;;;4.83;2.70;;;;;;;18.34;49.73;96221.00;7003364;28;20211;-81
2024/02/09 14:57:29;;;;;;;2.97;2.50;;;;;;;18.31;50.34;96220.78;7000531;28;20227;-81
2024/02/09 15:00:55;;;;;;;5.27;3.47;;;;;;;18.40;50.37;96218.94;6998027;28;20266;-81
2024/02/09 15:04:17;;;;;;;6.10;3.87;;;;;;;18.13;52.08;96224.59;6999018;28;20188;-80
2024/02/09 15:07:41;;;;;;;4.87;3.50;;;;;;;17.98;53.41;96225.00;6998129;28;20696;-80
2024/02/09 15:11:03;;;;;;;4.53;3.90;;;;;;;17.74;53.99;96217.19;6997963;28;20590;-81
2024/02/09 15:14:24;;;;;;;5.73;3.50;;;;;;;17.79;53.39;96191.72;6996795;28;20297;-81
2024/02/09 15:17:47;;;;;;;5.20;3.20;;;;;;;17.48;53.27;96180.03;6994370;28;20270;-81
2024/02/09 15:21:09;;;;;;;4.43;3.20;;;;;;;17.88;53.28;96217.88;6995917;28;20904;-80
2024/02/09 15:24:35;;;;;;;5.70;4.70;;;;;;;17.86;54.84;96214.69;6994314;28;20290;-80
2024/02/09 15:27:57;;;;;;;5.77;4.80;;;;;;;17.75;55.51;96218.00;6994549;28;20310;-79
2024/02/09 15:31:19;;;;;;;7.57;5.70;;;;;;;17.47;56.13;96194.75;6996224;28;20259;-79
2024/02/09 15:34:44;;;;;;;8.00;5.53;;;;;;;17.84;55.56;96219.66;6995359;28;20210;-80
2024/02/09 15:38:05;;;;;;;8.63;5.70;;;;;;;17.94;55.40;96219.41;6994465;28;20246;-79
2024/02/09 15:41:28;;;;;;;7.10;5.13;;;;;;;17.87;55.88;96210.06;6995536;28;20734;-80
2024/02/09 15:44:50;;;;;;;10.47;8.40;;;;;;;17.83;56.29;96207.16;6984778;28;20196;-80
2024/02/09 15:48:12;;;;;;;12.60;7.77;;;;;;;17.77;56.58;96218.50;6995377;28;20235;-80
2024/02/09 15:51:35;;;;;;;10.37;7.27;;;;;;;17.80;56.61;96209.69;6989367;28;20287;-80
2024/02/09 15:54:57;;;;;;;13.17;9.23;;;;;;;17.24;58.43;96217.66;6968232;28;20262;-80
2024/02/09 15:58:20;;;;;;;11.37;8.23;;;;;;;17.21;59.16;96216.34;6967412;28;20239;-79
2024/02/09 16:01:42;;;;;;;8.87;6.47;;;;;;;17.12;59.34;96218.22;6968282;28;20224;-79
2024/02/09 16:05:04;;;;;;;8.20;5.83;;;;;;;17.14;59.08;96223.31;6993928;28;20625;-81
2024/02/09 16:08:27;;;;;;;3.07;2.77;;;;;;;17.11;56.13;96213.06;6990548;28;20231;-80
2024/02/09 16:11:49;;;;;;;4.43;3.23;;;;;;;16.94;55.90;96230.06;6978720;28;20230;-81
2024/02/09 16:15:10;;;;;;;4.00;3.43;;;;;;;16.30;58.11;96215.97;6996693;28;20697;-80
2024/02/09 16:18:32;;;;;;;3.60;2.90;;;;;;;16.68;58.26;96226.31;6996131;28;20317;-80
2024/02/09 16:21:54;;;;;;;3.90;2.77;;;;;;;16.45;58.87;96245.59;6996752;28;20235;-80
2024/02/09 16:25:19;;;;;;;4.53;3.00;;;;;;;16.61;58.81;96231.34;6996935;28;20209;-80
2024/02/09 16:28:40;;;;;;;6.67;4.03;;;;;;;16.73;58.66;96241.69;6995668;28;20356;-80
2024/02/09 16:32:02;;;;;;;6.03;4.10;;;;;;;16.67;59.25;96230.13;6988768;28;20217;-80
2024/02/09 16:35:24;;;;;;;5.07;4.03;;;;;;;16.93;58.88;96242.06;6994302;28;20256;-82
2024/02/09 16:38:45;;;;;;;6.23;4.80;;;;;;;16.66;59.94;96235.88;6997233;28;20607;-80
2024/02/09 16:42:08;;;;;;;8.53;5.80;;;;;;;16.35;61.64;96237.59;6997636;28;20238;-80
2024/02/09 16:45:30;;;;;;;12.33;10.07;;;;;;;16.31;61.96;96228.44;6989410;28;20731;-82
2024/02/09 16:48:51;;;;;;;5.67;5.07;;;;;;;16.50;60.86;96229.97;6997008;28;20271;-80
2024/02/09 16:52:13;;;;;;;8.87;5.13;;;;;;;16.54;60.47;96236.41;6992957;28;20672;-83
2024/02/09 16:55:34;;;;;;;6.17;4.47;;;;;;;16.72;59.78;96231.94;7000660;28;20729;-80
2024/02/09 16:58:57;;;;;;;6.90;4.00;;;;;;;16.69;59.47;96251.59;6989499;28;20298;-81
2024/02/09 17:02:19;;;;;;;4.53;4.10;;;;;;;16.66;59.16;96247.56;7001911;28;20257;-81
2024/02/09 17:05:40;;;;;;;5.27;3.00;;;;;;;16.70;58.42;96223.28;6999729;28;20297;-83
2024/02/09 17:09:02;;;;;;;4.10;3.00;;;;;;;16.72;57.81;96238.19;7005929;28;20249;-81
2024/02/09 17:12:23;;;;;;;2.87;2.60;;;;;;;16.83;57.45;96255.91;7006107;28;20721;-82
2024/02/09 17:15:46;;;;;;;5.10;3.33;;;;;;;16.77;57.83;96246.25;7017127;28;20565;-81
2024/02/09 17:19:08;;;;;;;3.43;3.03;;;;;;;16.84;57.84;96245.81;6993061;28;20800;-81
2024/02/09 17:22:29;;;;;;;2.93;2.60;;;;;;;16.70;58.10;96250.50;6998289;28;20226;-82
2024/02/09 17:25:51;;;;;;;3.57;2.30;;;;;;;16.76;57.86;96252.00;6998451;28;20678;-81
2024/02/09 17:29:13;;;;;;;3.47;2.27;;;;;;;16.79;57.16;96260.34;7000555;28;20557;-80
2024/02/09 17:32:36;;;;;;;2.67;2.47;;;;;;;16.59;57.99;96254.53;7000823;28;20613;-82
2024/02/09 17:35:57;;;;;;;2.80;2.47;;;;;;;16.69;58.19;96240.72;7000493;28;20218;-82
2024/02/09 17:39:21;;;;;;;4.53;2.37;;;;;;;16.56;58.79;96244.25;7004571;28;20204;-80
2024/02/09 17:42:43;;;;;;;3.23;2.50;;;;;;;16.64;58.16;96236.16;7008883;28;20230;-81